Nashville, Tennessee
Traffic Map
Current Weather Conditions
Nashville, Tennessee
Few Clouds
Few Clouds
78°
Feels Like: 80°
Wind Chill: 78° Ceiling: Unl
Heat Index: 80° Visibility: 10mi
Dew Point: 70° Wind: 3mph
Humidity: 76% Direction: 130° (SE)
Pressure: 30.13in Gusts: 0mph
Raw Report DataKBNA 290353Z 13003KT 10SM FEW150 26/21 A3013 RMK AO2 SLP195 T02560211
Traffic Incident Summary
Active as of:
Severity:
Category:
InformationThere was an issue retrieving the traffic information for this location. Please try a different location or try again shortly.
Advertisements
Track Severe Weather on mobile